Time;durP1;ratioP1;P1;durP2;ratioP2;P2;SDS_P1;SDS_P2;PMS_P1;PMS_P2;Temp;Humidity;BMP_temperature;BMP_pressure;BME280_temperature;BME280_humidity;BME280_pressure;Samples;Min_cycle;Max_cycle;Signal;HPM_P1;HPM_P2
2022/04/25 00:01:49;;;;;;;;;;;19.60;57.90;;;;;;5006865;28;19968;-68
2022/04/25 00:04:15;;;;;;;;;;;19.60;57.90;;;;;;4987564;28;19917;-69
2022/04/25 00:06:40;;;;;;;;;;;19.60;57.90;;;;;;5001131;28;19932;-69
2022/04/25 00:09:06;;;;;;;;;;;19.60;57.80;;;;;;5004841;28;19918;-71
2022/04/25 00:11:31;;;;;;;;;;;19.60;57.80;;;;;;4995429;28;19934;-68
2022/04/25 00:13:57;;;;;;;;;;;19.60;57.80;;;;;;4989606;28;19913;-70
2022/04/25 00:16:23;;;;;;;;;;;19.60;57.80;;;;;;5006615;28;19921;-70
2022/04/25 00:18:49;;;;;;;;;;;19.60;57.80;;;;;;5004125;28;20424;-71
2022/04/25 00:21:14;;;;;;;;;;;19.60;57.80;;;;;;4982726;28;19918;-68
2022/04/25 00:23:40;;;;;;;;;;;19.50;57.70;;;;;;5007082;28;20000;-70
2022/04/25 00:26:06;;;;;;;;;;;19.50;57.80;;;;;;5007279;28;20273;-70
2022/04/25 00:28:31;;;;;;;;;;;19.50;57.70;;;;;;5004487;28;19964;-69
2022/04/25 00:30:57;;;;;;;;;;;19.50;57.70;;;;;;5005960;28;19933;-71
2022/04/25 00:33:22;;;;;;;;;;;19.50;57.70;;;;;;4988536;28;20712;-67
2022/04/25 00:35:47;;;;;;;;;;;19.50;57.60;;;;;;4989058;28;19918;-71
2022/04/25 00:38:13;;;;;;;;;;;19.50;57.60;;;;;;5004468;28;19917;-71
2022/04/25 00:40:39;;;;;;;;;;;19.50;57.60;;;;;;5004627;28;19976;-69
2022/04/25 00:43:04;;;;;;;;;;;19.50;57.70;;;;;;4988308;28;20292;-68
2022/04/25 00:45:33;;;;;;;;;;;19.50;57.60;;;;;;5006029;28;19918;-67
2022/04/25 00:47:58;;;;;;;;;;;19.50;57.60;;;;;;5005477;28;19918;-72
2022/04/25 00:50:24;;;;;;;;;;;19.50;57.70;;;;;;5004079;28;19936;-69
2022/04/25 00:52:49;;;;;;;;;;;19.50;57.60;;;;;;5004634;28;19920;-69
2022/04/25 00:55:15;;;;;;;;;;;19.50;57.80;;;;;;4988145;28;19918;-69
2022/04/25 00:57:40;;;;;;;;;;;19.50;57.80;;;;;;5001317;28;20408;-69
2022/04/25 01:00:07;;;;;;;;;;;19.50;57.80;;;;;;5005259;28;19917;-69
2022/04/25 01:02:32;;;;;;;;;;;19.50;57.80;;;;;;4992835;28;21235;-68
2022/04/25 01:04:58;;;;;;;;;;;19.50;57.80;;;;;;4988224;28;19917;-70
2022/04/25 01:07:23;;;;;;;;;;;19.50;57.80;;;;;;4996349;28;19918;-71
2022/04/25 01:09:49;;;;;;;;;;;19.50;57.70;;;;;;5005282;28;19913;-69
2022/04/25 01:12:14;;;;;;;;;;;19.50;57.80;;;;;;4996910;28;19921;-69
2022/04/25 01:14:40;;;;;;;;;;;19.50;57.80;;;;;;4994719;28;19921;-72
2022/04/25 01:17:05;;;;;;;;;;;19.50;57.70;;;;;;4987437;28;19920;-69
2022/04/25 01:19:31;;;;;;;;;;;19.50;57.70;;;;;;4987456;28;19913;-68
2022/04/25 01:21:58;;;;;;;;;;;19.50;57.70;;;;;;4990682;28;19949;-74
2022/04/25 01:27:16;;;;;;;;;;;19.50;57.70;;;;;;5002681;28;19920;-70
2022/04/25 01:29:45;;;;;;;;;;;19.50;57.70;;;;;;5005238;28;20600;-70
2022/04/25 01:32:11;;;;;;;;;;;19.50;57.70;;;;;;4991947;28;20617;-71
2022/04/25 01:34:37;;;;;;;;;;;19.50;57.70;;;;;;5006079;28;20544;-69
2022/04/25 01:37:12;;;;;;;;;;;19.40;57.60;;;;;;5005171;28;20036;-72
2022/04/25 01:39:38;;;;;;;;;;;19.40;57.60;;;;;;4971129;28;19917;-72
2022/04/25 01:42:04;;;;;;;;;;;19.40;57.60;;;;;;5004853;28;20572;-70
2022/04/25 01:44:29;;;;;;;;;;;19.40;57.60;;;;;;5003510;28;20004;-68
2022/04/25 01:46:55;;;;;;;;;;;19.40;57.60;;;;;;5003850;28;19971;-72
2022/04/25 01:49:20;;;;;;;;;;;19.40;57.60;;;;;;5004517;28;19918;-72
2022/04/25 01:51:46;;;;;;;;;;;19.40;57.60;;;;;;4987366;28;19937;-72
2022/04/25 01:54:11;;;;;;;;;;;19.40;57.50;;;;;;5005915;28;19914;-72
2022/04/25 01:56:37;;;;;;;;;;;19.40;57.50;;;;;;5004628;28;20604;-71
2022/04/25 01:59:02;;;;;;;;;;;19.40;57.50;;;;;;4986964;28;20083;-70
2022/04/25 02:01:28;;;;;;;;;;;19.40;57.50;;;;;;4987172;28;19963;-71
2022/04/25 02:03:53;;;;;;;;;;;19.40;57.60;;;;;;5004832;28;19918;-70
2022/04/25 02:06:18;;;;;;;;;;;19.40;57.50;;;;;;5005018;28;19913;-70
2022/04/25 02:08:44;;;;;;;;;;;19.40;57.50;;;;;;4990582;28;19944;-71
2022/04/25 02:11:22;;;;;;;;;;;19.40;57.40;;;;;;5005208;28;19956;-71
2022/04/25 02:13:51;;;;;;;;;;;19.40;57.40;;;;;;5005196;28;19917;-73
2022/04/25 02:16:17;;;;;;;;;;;19.30;57.40;;;;;;5006110;28;19914;-71
2022/04/25 02:18:42;;;;;;;;;;;19.30;57.40;;;;;;4993367;28;20340;-72
2022/04/25 02:21:08;;;;;;;;;;;19.30;57.40;;;;;;4986085;28;20702;-73
2022/04/25 02:23:34;;;;;;;;;;;19.30;57.40;;;;;;4995778;28;20293;-72
2022/04/25 02:25:59;;;;;;;;;;;19.30;57.40;;;;;;5005044;28;19918;-70
2022/04/25 02:28:25;;;;;;;;;;;19.30;57.40;;;;;;4996374;28;20358;-71
2022/04/25 02:30:51;;;;;;;;;;;19.30;57.30;;;;;;4987014;28;19925;-72
2022/04/25 02:33:17;;;;;;;;;;;19.30;57.30;;;;;;5004353;28;19925;-72
2022/04/25 02:35:42;;;;;;;;;;;19.30;57.30;;;;;;5004016;28;19917;-73
2022/04/25 02:38:08;;;;;;;;;;;19.30;57.30;;;;;;5003818;28;19980;-74
2022/04/25 02:40:33;;;;;;;;;;;19.30;57.30;;;;;;5004360;28;20772;-71
2022/04/25 02:42:59;;;;;;;;;;;19.30;57.30;;;;;;4988561;28;19918;-70
2022/04/25 02:45:24;;;;;;;;;;;19.30;57.30;;;;;;5005156;28;19942;-75
2022/04/25 02:47:50;;;;;;;;;;;19.30;57.30;;;;;;5003825;28;19925;-71
2022/04/25 02:50:16;;;;;;;;;;;19.30;57.30;;;;;;4987058;28;19914;-72
2022/04/25 02:52:41;;;;;;;;;;;19.30;57.30;;;;;;4987678;28;19914;-70
2022/04/25 02:55:07;;;;;;;;;;;19.30;57.30;;;;;;4989793;28;19917;-71
2022/04/25 02:57:33;;;;;;;;;;;19.30;57.20;;;;;;5007759;28;25202;-72
2022/04/25 02:59:58;;;;;;;;;;;19.30;57.20;;;;;;5007499;28;20400;-70
2022/04/25 03:02:24;;;;;;;;;;;19.30;57.20;;;;;;4991092;28;20476;-71
2022/04/25 03:04:49;;;;;;;;;;;19.30;57.20;;;;;;5009241;28;19995;-73
2022/04/25 03:07:15;;;;;;;;;;;19.20;57.20;;;;;;5010019;28;19925;-72
2022/04/25 03:09:40;;;;;;;;;;;19.20;57.20;;;;;;4996598;28;19929;-69
2022/04/25 03:12:06;;;;;;;;;;;19.30;57.20;;;;;;5007248;28;19926;-71
2022/04/25 03:14:33;;;;;;;;;;;19.20;57.20;;;;;;5008604;28;19913;-72
2022/04/25 03:16:59;;;;;;;;;;;19.20;57.20;;;;;;5009489;28;19918;-70
2022/04/25 03:19:24;;;;;;;;;;;19.20;57.10;;;;;;5008494;28;19925;-69
2022/04/25 03:21:50;;;;;;;;;;;19.20;57.10;;;;;;4990546;28;19917;-72
2022/04/25 03:24:15;;;;;;;;;;;19.20;57.20;;;;;;5007741;28;19940;-69
2022/04/25 03:26:40;;;;;;;;;;;19.20;57.20;;;;;;5008301;28;19967;-72
2022/04/25 03:29:06;;;;;;;;;;;19.20;57.20;;;;;;5006604;28;19918;-70
2022/04/25 03:31:31;;;;;;;;;;;19.20;57.20;;;;;;5006450;28;19967;-71
2022/04/25 03:33:57;;;;;;;;;;;19.20;57.20;;;;;;4987265;28;20500;-72
2022/04/25 03:36:22;;;;;;;;;;;19.20;57.20;;;;;;5007564;28;19917;-71
2022/04/25 03:38:48;;;;;;;;;;;19.20;57.30;;;;;;5006281;28;19940;-72
2022/04/25 03:41:13;;;;;;;;;;;19.20;57.30;;;;;;5007589;28;19921;-69
2022/04/25 03:43:39;;;;;;;;;;;19.20;57.20;;;;;;5006524;28;20656;-70
2022/04/25 03:46:05;;;;;;;;;;;19.20;57.30;;;;;;5005969;28;19930;-72
2022/04/25 03:48:30;;;;;;;;;;;19.20;57.30;;;;;;5006515;28;20111;-72
2022/04/25 03:50:56;;;;;;;;;;;19.20;57.30;;;;;;5006933;28;20598;-71
2022/04/25 03:53:21;;;;;;;;;;;19.20;57.20;;;;;;5006559;28;19917;-71
2022/04/25 03:58:31;;;;;;;;;;;19.20;57.20;;;;;;5006291;28;20064;-72
2022/04/25 04:00:56;;;;;;;;;;;19.20;57.20;;;;;;5006643;28;19921;-71
2022/04/25 04:03:22;;;;;;;;;;;19.20;57.30;;;;;;5006584;28;20683;-70
2022/04/25 04:05:48;;;;;;;;;;;19.20;57.20;;;;;;5004992;28;19984;-70
2022/04/25 04:08:13;;;;;;;;;;;19.20;57.20;;;;;;4988950;28;19925;-71
2022/04/25 04:10:39;;;;;;;;;;;19.20;57.20;;;;;;5006383;28;19920;-70
2022/04/25 04:13:05;;;;;;;;;;;19.20;57.20;;;;;;5005499;28;19925;-70
2022/04/25 04:15:31;;;;;;;;;;;19.10;57.20;;;;;;4995817;28;19964;-70
2022/04/25 04:17:56;;;;;;;;;;;19.20;57.30;;;;;;5005424;28;20384;-70
2022/04/25 04:20:22;;;;;;;;;;;19.10;57.20;;;;;;5005479;28;19914;-71
2022/04/25 04:22:47;;;;;;;;;;;19.10;57.20;;;;;;5006012;28;19964;-70
2022/04/25 04:25:12;;;;;;;;;;;19.10;57.20;;;;;;5006790;28;19977;-71
2022/04/25 04:27:41;;;;;;;;;;;19.10;57.20;;;;;;4989233;28;19936;-71
2022/04/25 04:30:07;;;;;;;;;;;19.10;57.20;;;;;;5005459;28;19917;-70
2022/04/25 04:32:33;;;;;;;;;;;19.10;57.20;;;;;;5003850;28;19913;-71
2022/04/25 04:34:58;;;;;;;;;;;19.10;57.20;;;;;;5005011;28;19948;-73
2022/04/25 04:37:25;;;;;;;;;;;19.10;57.20;;;;;;5006305;28;20384;-73
2022/04/25 04:39:50;;;;;;;;;;;19.10;57.40;;;;;;5003369;28;19925;-71
2022/04/25 04:42:16;;;;;;;;;;;19.10;58.30;;;;;;4988625;28;19925;-72
2022/04/25 04:44:42;;;;;;;;;;;19.20;57.90;;;;;;5006076;28;19917;-73
2022/04/25 04:47:07;;;;;;;;;;;19.30;57.60;;;;;;5004746;28;19920;-70
2022/04/25 04:49:33;;;;;;;;;;;19.30;57.40;;;;;;5004083;28;19922;-72
2022/04/25 04:51:58;;;;;;;;;;;19.40;57.50;;;;;;4988047;28;19969;-73
2022/04/25 04:54:24;;;;;;;;;;;19.50;57.30;;;;;;5005649;28;19925;-70
2022/04/25 04:56:49;;;;;;;;;;;19.50;57.20;;;;;;5005904;28;20396;-71
2022/04/25 04:59:15;;;;;;;;;;;19.50;57.00;;;;;;5005251;28;19921;-75
2022/04/25 05:01:40;;;;;;;;;;;19.50;56.90;;;;;;5005329;28;19989;-73
2022/04/25 05:04:06;;;;;;;;;;;19.60;57.00;;;;;;4988379;28;19924;-71
2022/04/25 05:06:31;;;;;;;;;;;19.50;56.90;;;;;;5006148;28;19914;-72
2022/04/25 05:08:57;;;;;;;;;;;19.50;56.80;;;;;;5004360;28;19948;-74
2022/04/25 05:11:22;;;;;;;;;;;19.50;56.80;;;;;;4995706;28;19929;-70
2022/04/25 05:13:48;;;;;;;;;;;19.50;56.80;;;;;;5004401;28;20335;-72
2022/04/25 05:16:13;;;;;;;;;;;19.50;56.80;;;;;;5005612;28;19918;-71
2022/04/25 05:18:39;;;;;;;;;;;19.50;56.80;;;;;;5002883;28;19917;-72
2022/04/25 05:21:05;;;;;;;;;;;19.50;56.80;;;;;;4998492;28;19921;-74
2022/04/25 05:23:30;;;;;;;;;;;19.50;57.10;;;;;;5004702;28;19918;-72
2022/04/25 05:25:55;;;;;;;;;;;19.50;57.20;;;;;;4988950;28;19914;-72
2022/04/25 05:28:22;;;;;;;;;;;19.50;57.20;;;;;;4999901;28;19918;-73
2022/04/25 05:30:47;;;;;;;;;;;19.40;57.20;;;;;;4999900;28;19922;-73
2022/04/25 05:33:13;;;;;;;;;;;19.40;57.10;;;;;;4985623;28;19919;-73
2022/04/25 05:35:38;;;;;;;;;;;19.40;57.10;;;;;;4985984;28;19961;-71
2022/04/25 05:38:06;;;;;;;;;;;19.40;57.10;;;;;;5002173;28;19921;-71
2022/04/25 05:40:32;;;;;;;;;;;19.30;57.00;;;;;;5003985;28;20444;-70
2022/04/25 05:42:58;;;;;;;;;;;19.30;57.00;;;;;;4990705;28;19913;-70
2022/04/25 05:45:24;;;;;;;;;;;19.30;57.00;;;;;;4991516;28;20379;-71
2022/04/25 05:47:50;;;;;;;;;;;19.30;57.60;;;;;;5002696;28;19918;-74
2022/04/25 05:53:00;;;;;;;;;;;19.30;57.50;;;;;;5010398;28;19979;-73
2022/04/25 05:55:25;;;;;;;;;;;19.40;58.20;;;;;;4992179;28;19914;-71
2022/04/25 05:57:51;;;;;;;;;;;19.40;58.00;;;;;;5006984;28;19945;-71
2022/04/25 06:00:16;;;;;;;;;;;19.40;57.80;;;;;;4989892;28;20465;-71
2022/04/25 06:02:42;;;;;;;;;;;19.40;57.80;;;;;;5006564;28;19935;-73
2022/04/25 06:05:10;;;;;;;;;;;19.40;58.00;;;;;;5006600;28;19914;-71
2022/04/25 06:07:36;;;;;;;;;;;19.30;57.90;;;;;;5005882;28;19964;-69
2022/04/25 06:10:02;;;;;;;;;;;19.30;58.00;;;;;;5005216;28;19918;-71
2022/04/25 06:12:29;;;;;;;;;;;19.40;58.80;;;;;;4994331;28;20012;-70
2022/04/25 06:14:58;;;;;;;;;;;19.30;58.80;;;;;;4988198;28;20245;-70
2022/04/25 06:17:23;;;;;;;;;;;19.30;58.70;;;;;;4996323;28;20428;-71
2022/04/25 06:19:49;;;;;;;;;;;19.30;58.70;;;;;;5005426;28;19917;-73
2022/04/25 06:22:14;;;;;;;;;;;19.30;58.70;;;;;;5006908;28;19976;-68
2022/04/25 06:24:40;;;;;;;;;;;19.30;58.60;;;;;;4988486;28;19924;-73
2022/04/25 06:27:08;;;;;;;;;;;19.30;58.60;;;;;;5005327;28;19948;-74
2022/04/25 06:29:33;;;;;;;;;;;19.30;58.70;;;;;;5005731;28;20301;-73
2022/04/25 06:32:02;;;;;;;;;;;19.30;58.80;;;;;;5007569;28;19918;-69
2022/04/25 06:34:28;;;;;;;;;;;19.30;58.90;;;;;;5010956;28;19980;-70
2022/04/25 06:36:53;;;;;;;;;;;19.30;59.10;;;;;;5007428;28;19921;-72
2022/04/25 06:39:18;;;;;;;;;;;19.30;59.10;;;;;;5009767;28;19918;-71
2022/04/25 06:41:44;;;;;;;;;;;19.30;59.00;;;;;;5010250;28;20415;-73
2022/04/25 06:44:09;;;;;;;;;;;19.30;59.00;;;;;;5010801;28;20423;-72
2022/04/25 06:46:35;;;;;;;;;;;19.30;59.00;;;;;;4993469;28;19922;-71
2022/04/25 06:49:19;;;;;;;;;;;19.30;58.90;;;;;;5010702;28;20693;-74
2022/04/25 06:51:45;;;;;;;;;;;19.30;58.70;;;;;;5010077;28;19949;-70
2022/04/25 06:54:11;;;;;;;;;;;19.30;58.80;;;;;;5009979;28;20011;-71
2022/04/25 06:56:37;;;;;;;;;;;19.30;58.80;;;;;;4991956;28;19928;-70
2022/04/25 06:59:02;;;;;;;;;;;19.20;58.70;;;;;;4988525;28;19918;-71
2022/04/25 07:01:28;;;;;;;;;;;19.30;58.80;;;;;;4987713;28;20409;-73
2022/04/25 07:03:53;;;;;;;;;;;19.20;58.80;;;;;;5020237;28;19925;-72
2022/04/25 07:06:19;;;;;;;;;;;19.20;58.80;;;;;;5008897;28;19913;-70
2022/04/25 07:08:44;;;;;;;;;;;19.20;58.70;;;;;;4994178;28;19917;-71
2022/04/25 07:11:10;;;;;;;;;;;19.20;58.70;;;;;;5007518;28;19926;-70
2022/04/25 07:13:35;;;;;;;;;;;19.20;58.60;;;;;;5008135;28;19917;-71
2022/04/25 07:16:01;;;;;;;;;;;19.20;58.60;;;;;;5009441;28;19972;-70
2022/04/25 07:18:26;;;;;;;;;;;19.20;58.50;;;;;;5009025;28;20442;-73
2022/04/25 07:20:51;;;;;;;;;;;19.20;58.50;;;;;;5007956;28;19928;-72
2022/04/25 07:28:59;;;;;;;;;;;19.20;58.50;;;;;;5007686;28;20292;-72
2022/04/25 07:31:24;;;;;;;;;;;19.20;58.40;;;;;;4991039;28;19918;-73
2022/04/25 07:33:50;;;;;;;;;;;19.20;58.40;;;;;;5000920;28;19940;-71
2022/04/25 07:36:17;;;;;;;;;;;19.20;58.30;;;;;;5008665;28;20003;-74
2022/04/25 07:38:43;;;;;;;;;;;19.20;58.40;;;;;;5006798;28;19918;-74
2022/04/25 07:41:08;;;;;;;;;;;19.20;58.30;;;;;;4990986;28;19922;-73
2022/04/25 07:43:34;;;;;;;;;;;19.20;58.40;;;;;;4997816;28;20262;-71
2022/04/25 07:46:00;;;;;;;;;;;19.10;58.30;;;;;;5009147;28;19918;-72
2022/04/25 07:48:25;;;;;;;;;;;19.20;58.30;;;;;;5002238;28;19917;-74
2022/04/25 07:50:51;;;;;;;;;;;19.20;58.30;;;;;;4991023;28;19987;-71
2022/04/25 07:53:16;;;;;;;;;;;19.20;58.30;;;;;;4977564;28;19917;-73
2022/04/25 07:55:42;;;;;;;;;;;19.20;58.30;;;;;;5009232;28;19917;-73
2022/04/25 07:58:10;;;;;;;;;;;19.10;58.20;;;;;;5006580;28;20471;-74
2022/04/25 08:00:36;;;;;;;;;;;19.10;58.30;;;;;;4991944;28;19940;-75
2022/04/25 08:03:01;;;;;;;;;;;19.10;58.20;;;;;;4992731;28;20184;-71
2022/04/25 08:05:27;;;;;;;;;;;19.10;58.20;;;;;;5008457;28;20338;-73
2022/04/25 08:07:52;;;;;;;;;;;19.10;58.20;;;;;;4989476;28;19914;-73
2022/04/25 08:10:18;;;;;;;;;;;19.10;58.20;;;;;;5007780;28;20439;-72
2022/04/25 08:18:13;;;;;;;;;;;19.10;58.10;;;;;;5006710;28;20313;-74
2022/04/25 08:20:39;;;;;;;;;;;19.10;58.10;;;;;;4991327;28;19955;-72
2022/04/25 08:23:05;;;;;;;;;;;19.10;58.10;;;;;;4991431;28;20840;-71
2022/04/25 08:25:31;;;;;;;;;;;19.10;58.10;;;;;;5009408;28;19914;-72
2022/04/25 08:27:57;;;;;;;;;;;19.10;58.10;;;;;;4995850;28;19928;-73
2022/04/25 08:30:23;;;;;;;;;;;19.10;58.00;;;;;;4988937;28;19917;-72
2022/04/25 08:32:48;;;;;;;;;;;19.10;58.10;;;;;;4988255;28;20280;-70
2022/04/25 08:35:14;;;;;;;;;;;19.10;58.00;;;;;;5001117;28;19918;-73
2022/04/25 08:37:40;;;;;;;;;;;19.10;58.00;;;;;;5005738;28;19918;-72
2022/04/25 08:40:05;;;;;;;;;;;19.10;58.00;;;;;;4992656;28;19924;-73
2022/04/25 08:42:31;;;;;;;;;;;19.10;58.00;;;;;;5005341;28;19917;-71
2022/04/25 08:44:57;;;;;;;;;;;19.10;58.00;;;;;;4999466;28;19913;-72
2022/04/25 08:47:23;;;;;;;;;;;19.10;58.00;;;;;;5007209;28;19925;-71
2022/04/25 08:49:49;;;;;;;;;;;19.10;57.90;;;;;;4999267;28;19920;-73
2022/04/25 08:52:14;;;;;;;;;;;19.10;57.90;;;;;;4989721;28;19914;-71
2022/04/25 08:54:40;;;;;;;;;;;19.10;57.90;;;;;;4996758;28;19976;-71
2022/04/25 08:57:05;;;;;;;;;;;19.10;57.90;;;;;;5005319;28;19936;-71
2022/04/25 08:59:32;;;;;;;;;;;19.10;57.80;;;;;;5004935;28;19917;-71
2022/04/25 09:01:57;;;;;;;;;;;19.10;57.90;;;;;;4989066;28;19921;-71
2022/04/25 09:04:23;;;;;;;;;;;19.10;57.80;;;;;;5006963;28;19924;-71
2022/04/25 09:06:51;;;;;;;;;;;19.10;57.90;;;;;;5004464;28;20402;-67
2022/04/25 09:09:17;;;;;;;;;;;19.10;57.80;;;;;;5004707;28;20343;-73
2022/04/25 09:14:26;;;;;;;;;;;19.10;57.80;;;;;;5005848;28;20699;-73
2022/04/25 09:16:51;;;;;;;;;;;19.10;57.80;;;;;;5004996;28;19925;-68
2022/04/25 09:19:17;;;;;;;;;;;19.10;57.80;;;;;;5005119;28;20295;-72
2022/04/25 09:21:43;;;;;;;;;;;19.10;57.80;;;;;;4988014;28;19972;-73
2022/04/25 09:24:21;;;;;;;;;;;19.10;57.80;;;;;;4988794;28;19988;-75
2022/04/25 09:26:47;;;;;;;;;;;19.00;57.80;;;;;;5006797;28;19918;-76
2022/04/25 09:29:12;;;;;;;;;;;19.00;57.70;;;;;;5003758;28;19924;-72
2022/04/25 09:31:46;;;;;;;;;;;19.10;57.80;;;;;;4987848;28;20252;-72
2022/04/25 09:34:15;;;;;;;;;;;19.10;57.70;;;;;;5004952;28;19928;-72
2022/04/25 09:36:46;;;;;;;;;;;19.00;57.70;;;;;;4969300;28;19914;-71
2022/04/25 09:39:28;;;;;;;;;;;19.10;57.70;;;;;;4984168;28;19918;-72
2022/04/25 09:41:53;;;;;;;;;;;19.10;57.70;;;;;;4984677;28;19925;-73
2022/04/25 09:44:19;;;;;;;;;;;19.00;57.60;;;;;;4985867;28;19914;-73
2022/04/25 09:46:47;;;;;;;;;;;19.10;57.60;;;;;;5020189;28;19926;-71
2022/04/25 09:49:17;;;;;;;;;;;19.00;57.60;;;;;;5003760;28;20008;-71
2022/04/25 09:51:58;;;;;;;;;;;19.00;57.60;;;;;;4988859;28;20012;-73
2022/04/25 09:54:23;;;;;;;;;;;19.00;57.60;;;;;;4987875;28;19960;-70
2022/04/25 09:56:49;;;;;;;;;;;19.00;57.60;;;;;;5004027;28;19952;-71
2022/04/25 09:59:15;;;;;;;;;;;19.00;57.60;;;;;;5003647;28;19917;-71
2022/04/25 10:01:43;;;;;;;;;;;19.00;57.60;;;;;;5005304;28;19992;-74
2022/04/25 10:04:27;;;;;;;;;;;19.00;57.60;;;;;;4986421;28;20297;-71
2022/04/25 10:06:52;;;;;;;;;;;19.00;57.60;;;;;;5004361;28;20075;-71
2022/04/25 10:09:18;;;;;;;;;;;19.00;57.60;;;;;;5002835;28;20429;-72
2022/04/25 10:11:43;;;;;;;;;;;19.00;57.60;;;;;;4990835;28;19926;-72
2022/04/25 10:14:09;;;;;;;;;;;19.00;57.50;;;;;;4970634;28;20415;-72
2022/04/25 10:16:34;;;;;;;;;;;19.00;57.50;;;;;;4997276;28;19926;-71
2022/04/25 10:19:00;;;;;;;;;;;19.00;57.50;;;;;;4985751;28;19917;-73
2022/04/25 10:21:25;;;;;;;;;;;19.00;57.50;;;;;;5003768;28;19943;-73
2022/04/25 10:23:50;;;;;;;;;;;19.00;57.50;;;;;;4987813;28;19936;-72
2022/04/25 10:26:16;;;;;;;;;;;19.00;57.50;;;;;;4987666;28;20334;-72
2022/04/25 10:28:46;;;;;;;;;;;19.00;57.50;;;;;;4987649;28;19917;-71
2022/04/25 10:31:20;;;;;;;;;;;19.00;57.50;;;;;;4994023;28;20404;-71
2022/04/25 10:33:52;;;;;;;;;;;19.00;57.50;;;;;;5003935;28;19976;-73
2022/04/25 10:36:36;;;;;;;;;;;19.00;57.50;;;;;;4999902;28;20351;-71
2022/04/25 10:39:20;;;;;;;;;;;19.00;57.40;;;;;;5004112;28;19918;-71
2022/04/25 10:44:42;;;;;;;;;;;19.00;57.40;;;;;;5005430;28;20296;-72
2022/04/25 10:47:11;;;;;;;;;;;19.00;57.50;;;;;;5005258;28;19925;-71
2022/04/25 10:49:43;;;;;;;;;;;19.00;57.50;;;;;;5004851;28;19917;-71
2022/04/25 10:52:27;;;;;;;;;;;19.00;57.50;;;;;;4997400;28;19920;-71
2022/04/25 10:54:53;;;;;;;;;;;19.00;57.50;;;;;;4997393;28;19924;-72
2022/04/25 10:57:18;;;;;;;;;;;19.00;57.50;;;;;;4993952;28;20296;-72
2022/04/25 10:59:44;;;;;;;;;;;19.00;57.50;;;;;;4970627;28;19918;-73
2022/04/25 11:02:21;;;;;;;;;;;19.00;57.50;;;;;;4994849;28;20028;-72
2022/04/25 11:04:47;;;;;;;;;;;19.00;57.50;;;;;;5003383;28;19929;-72
2022/04/25 11:07:19;;;;;;;;;;;19.00;57.50;;;;;;4994784;28;20428;-72
2022/04/25 11:09:44;;;;;;;;;;;19.00;57.40;;;;;;4994588;28;19924;-72
2022/04/25 11:12:10;;;;;;;;;;;19.00;57.40;;;;;;4995443;28;19925;-71
2022/04/25 11:14:35;;;;;;;;;;;19.00;57.40;;;;;;5005114;28;19918;-71
2022/04/25 11:17:04;;;;;;;;;;;19.00;57.40;;;;;;5007823;28;19921;-72
2022/04/25 11:19:46;;;;;;;;;;;18.90;57.40;;;;;;4991303;28;19917;-71
2022/04/25 11:22:27;;;;;;;;;;;19.00;57.50;;;;;;5010956;28;20015;-71
2022/04/25 11:24:52;;;;;;;;;;;18.90;57.40;;;;;;5006206;28;21516;-72
2022/04/25 11:27:20;;;;;;;;;;;18.90;57.40;;;;;;5007997;28;19967;-74
2022/04/25 11:29:47;;;;;;;;;;;18.90;57.40;;;;;;5006498;28;19917;-73
2022/04/25 11:32:23;;;;;;;;;;;18.90;57.30;;;;;;5006637;28;19913;-72
2022/04/25 11:34:49;;;;;;;;;;;18.90;57.30;;;;;;5007575;28;19924;-72
2022/04/25 11:37:14;;;;;;;;;;;18.90;57.30;;;;;;4986060;28;19913;-73
2022/04/25 11:39:51;;;;;;;;;;;18.90;57.30;;;;;;4990110;28;19913;-72
2022/04/25 11:42:18;;;;;;;;;;;18.90;57.30;;;;;;4994781;28;19924;-71
2022/04/25 11:44:44;;;;;;;;;;;18.90;57.30;;;;;;5005140;28;19914;-72
2022/04/25 11:47:10;;;;;;;;;;;18.90;57.30;;;;;;4986693;28;19914;-72
2022/04/25 11:49:37;;;;;;;;;;;18.90;57.30;;;;;;4988449;28;19914;-70
2022/04/25 11:52:03;;;;;;;;;;;18.90;57.30;;;;;;4991274;28;19921;-75
2022/04/25 11:54:32;;;;;;;;;;;18.90;57.30;;;;;;5007394;28;19964;-72
2022/04/25 11:57:01;;;;;;;;;;;18.90;57.30;;;;;;5006527;28;19917;-71
2022/04/25 11:59:26;;;;;;;;;;;18.90;57.30;;;;;;4989185;28;19918;-70
2022/04/25 12:01:52;;;;;;;;;;;18.90;57.30;;;;;;4991162;28;20502;-72
2022/04/25 12:04:18;;;;;;;;;;;18.90;57.30;;;;;;5006335;28;19921;-71
2022/04/25 12:06:48;;;;;;;;;;;18.90;57.30;;;;;;5005752;28;19924;-71
2022/04/25 12:17:39;;;;;;;;;;;18.90;57.20;;;;;;5006271;28;20052;-71
2022/04/25 12:20:06;;;;;;;;;;;18.90;57.20;;;;;;5007043;28;19972;-72
2022/04/25 12:22:31;;;;;;;;;;;18.90;57.30;;;;;;5007188;28;20020;-70
2022/04/25 12:25:12;;;;;;;;;;;18.90;57.20;;;;;;5007132;28;20004;-71
2022/04/25 12:27:37;;;;;;;;;;;18.90;57.30;;;;;;5006335;28;19976;-71
2022/04/25 12:30:06;;;;;;;;;;;18.90;57.20;;;;;;5007027;28;19914;-71
2022/04/25 12:32:31;;;;;;;;;;;18.90;57.20;;;;;;5007343;28;20012;-72
2022/04/25 12:34:57;;;;;;;;;;;18.90;57.20;;;;;;5007059;28;19921;-72
2022/04/25 12:37:22;;;;;;;;;;;18.90;57.90;;;;;;5006242;28;19914;-74
2022/04/25 12:40:03;;;;;;;;;;;18.90;57.30;;;;;;5007555;28;20447;-71
2022/04/25 12:42:44;;;;;;;;;;;18.90;57.30;;;;;;4988962;28;19949;-74
2022/04/25 12:45:10;;;;;;;;;;;18.90;57.30;;;;;;5006053;28;19914;-71
2022/04/25 12:47:35;;;;;;;;;;;18.90;57.20;;;;;;5006722;28;19918;-72
2022/04/25 12:50:03;;;;;;;;;;;18.90;57.20;;;;;;5006870;28;19918;-74
2022/04/25 12:52:41;;;;;;;;;;;18.90;57.30;;;;;;4990756;28;19925;-73
2022/04/25 12:55:06;;;;;;;;;;;18.90;57.20;;;;;;4986339;28;19953;-71
2022/04/25 12:57:32;;;;;;;;;;;18.90;57.20;;;;;;4987188;28;19963;-72
2022/04/25 12:59:58;;;;;;;;;;;18.90;57.20;;;;;;4988268;28;19969;-73
2022/04/25 13:02:26;;;;;;;;;;;18.90;57.20;;;;;;4987192;28;20341;-72
2022/04/25 13:04:52;;;;;;;;;;;18.90;57.20;;;;;;5006396;28;19918;-72
2022/04/25 13:07:19;;;;;;;;;;;18.90;57.20;;;;;;5006608;28;19942;-73
2022/04/25 13:09:44;;;;;;;;;;;18.90;57.10;;;;;;4992371;28;20395;-72
2022/04/25 13:12:13;;;;;;;;;;;18.90;57.10;;;;;;5006190;28;19921;-73
2022/04/25 13:14:39;;;;;;;;;;;18.90;57.20;;;;;;5000495;28;20009;-71
2022/04/25 13:17:06;;;;;;;;;;;18.90;57.10;;;;;;5005546;28;19918;-72
2022/04/25 13:19:32;;;;;;;;;;;18.90;57.10;;;;;;5004383;28;19917;-71
2022/04/25 13:21:57;;;;;;;;;;;18.90;57.10;;;;;;4987269;28;19926;-70
2022/04/25 13:24:23;;;;;;;;;;;18.90;57.10;;;;;;5004850;28;19917;-73
2022/04/25 13:26:48;;;;;;;;;;;18.90;57.10;;;;;;5005241;28;20447;-71
2022/04/25 13:29:14;;;;;;;;;;;18.90;57.80;;;;;;5004233;28;19921;-73
2022/04/25 13:31:39;;;;;;;;;;;18.90;57.20;;;;;;5004697;28;20548;-72
2022/04/25 13:34:05;;;;;;;;;;;18.90;57.10;;;;;;5004659;28;19924;-70
2022/04/25 13:36:30;;;;;;;;;;;18.90;57.10;;;;;;5003604;28;19953;-72
2022/04/25 13:38:56;;;;;;;;;;;18.90;57.10;;;;;;5000155;28;19918;-72
2022/04/25 13:41:21;;;;;;;;;;;18.90;57.10;;;;;;5004295;28;19957;-75
2022/04/25 13:43:49;;;;;;;;;;;18.90;57.10;;;;;;5004598;28;19922;-71
2022/04/25 13:46:15;;;;;;;;;;;18.90;57.10;;;;;;5005443;28;19914;-71
2022/04/25 13:48:41;;;;;;;;;;;18.90;57.10;;;;;;4987440;28;19917;-73
2022/04/25 13:51:07;;;;;;;;;;;18.90;57.10;;;;;;4987803;28;19918;-72
2022/04/25 13:53:34;;;;;;;;;;;18.90;57.10;;;;;;4987515;28;19914;-71
2022/04/25 13:56:02;;;;;;;;;;;18.90;57.10;;;;;;5004964;28;20000;-70
2022/04/25 13:58:28;;;;;;;;;;;18.90;57.10;;;;;;5003131;28;19914;-71
2022/04/25 14:00:53;;;;;;;;;;;18.90;57.10;;;;;;5004337;28;19924;-72
2022/04/25 14:03:18;;;;;;;;;;;18.90;57.10;;;;;;4987972;28;19918;-74
2022/04/25 14:05:45;;;;;;;;;;;18.90;57.10;;;;;;5001580;28;19975;-72
2022/04/25 14:08:13;;;;;;;;;;;18.90;57.20;;;;;;5004789;28;20296;-73
2022/04/25 14:10:44;;;;;;;;;;;18.90;57.10;;;;;;5002934;28;19959;-71
2022/04/25 14:13:11;;;;;;;;;;;18.90;57.10;;;;;;4973243;28;19921;-72
2022/04/25 14:15:37;;;;;;;;;;;18.90;57.10;;;;;;5008858;28;19921;-71
2022/04/25 14:18:02;;;;;;;;;;;18.90;57.10;;;;;;5004248;28;20642;-71
2022/04/25 14:20:30;;;;;;;;;;;18.90;57.10;;;;;;5006149;28;20679;-72
2022/04/25 14:22:57;;;;;;;;;;;18.90;57.10;;;;;;5007896;28;19924;-72
2022/04/25 14:25:22;;;;;;;;;;;18.90;57.10;;;;;;5009065;28;19917;-71
2022/04/25 14:27:48;;;;;;;;;;;18.90;57.00;;;;;;5008326;28;19914;-73
2022/04/25 14:30:13;;;;;;;;;;;19.00;57.10;;;;;;5009226;28;19922;-71
2022/04/25 14:32:39;;;;;;;;;;;19.00;57.10;;;;;;4990188;28;20611;-71
2022/04/25 14:35:04;;;;;;;;;;;19.00;57.00;;;;;;4993951;28;19925;-73
2022/04/25 14:37:30;;;;;;;;;;;19.00;56.90;;;;;;4989040;28;19913;-72
2022/04/25 14:39:55;;;;;;;;;;;19.00;56.90;;;;;;4985156;28;19932;-71
2022/04/25 14:42:21;;;;;;;;;;;19.00;56.90;;;;;;4988947;28;19922;-71
2022/04/25 14:44:46;;;;;;;;;;;19.00;57.00;;;;;;4988832;28;19918;-70
2022/04/25 14:47:12;;;;;;;;;;;19.00;57.10;;;;;;5004969;28;20374;-72